ZLXY/XIY METAR and TAF weather

Enter ICAO airport designator
Station Type Date Time Source
ZLXY METAR 2020/01/19 14:00 UTC NOAA

ZLXY 191400Z 27002MPS CAVOK 00/M07 Q1024 NOSIG


Station Type Date Time Source
ZLXY Decoded METAR 2020/01/19 14:00 UTC NOAA

Xian/Xianyang, China (ZLXY) 34-26N 108-45E
Jan 19, 2020 - 09:00 AM EST / 2020.01.19 1400 UTC
Wind: from the W (270 degrees) at 4 MPH (4 KT):0
Visibility: greater than 7 mile(s):0
Temperature: 32 F (0 C)
Dew Point: 19 F (-7 C)
Relative Humidity: 59%
Pressure (altimeter): 30.24 in. Hg (1024 hPa)
ob: ZLXY 191400Z 27002MPS CAVOK 00/M07 Q1024 NOSIG
cycle: 14

Station Type Date Time Source
ZLXY TAF 2020/01/19 12:03 UTC NOAA

TAF ZLXY 190905Z 1912/2012 26003MPS 3000 HZ NSC TX07/2007Z TNM05/1923Z

Example: see airport list